createdAt,value
2018-03-02T00:02:00.806Z,23.30
2018-03-02T00:05:04.779Z,21.85
2018-03-02T00:08:07.945Z,22.40
2018-03-02T00:11:11.105Z,23.45
2018-03-02T00:14:14.329Z,22.47
2018-03-02T00:17:17.624Z,23.37
2018-03-02T00:20:20.790Z,23.63
2018-03-02T00:23:23.985Z,23.53
2018-03-02T00:26:27.144Z,23.67
2018-03-02T00:29:30.413Z,22.93
2018-03-02T00:32:33.609Z,21.97
2018-03-02T00:35:36.866Z,23.57
2018-03-02T00:38:40.048Z,23.43
2018-03-02T00:41:43.263Z,22.13
2018-03-02T00:44:46.458Z,21.83
2018-03-02T00:47:49.661Z,22.40
2018-03-02T00:50:52.865Z,23.10
2018-03-02T00:53:56.045Z,24.00
2018-03-02T00:56:59.609Z,24.33
2018-03-02T01:00:02.777Z,23.17
2018-03-02T01:03:05.922Z,24.17
2018-03-02T01:06:09.109Z,24.53
2018-03-02T01:09:12.257Z,23.53
2018-03-02T01:12:15.453Z,23.37
2018-03-02T01:15:18.670Z,25.33
2018-03-02T01:18:21.829Z,22.97
2018-03-02T01:21:25.031Z,25.00
2018-03-02T01:24:28.199Z,23.43
2018-03-02T01:27:31.336Z,24.00
2018-03-02T01:30:34.605Z,22.75
2018-03-02T01:33:37.808Z,23.50
2018-03-02T01:36:41.008Z,23.50
2018-03-02T01:39:44.181Z,23.70
2018-03-02T01:42:47.354Z,22.67
2018-03-02T01:45:50.858Z,22.50
2018-03-02T01:52:32.091Z,23.97
2018-03-02T01:55:36.230Z,23.03
2018-03-02T01:58:39.396Z,24.23
2018-03-02T02:01:42.614Z,22.97
2018-03-02T02:04:45.806Z,23.07
2018-03-02T02:07:48.993Z,23.87
2018-03-02T02:10:52.264Z,21.63
2018-03-02T02:13:55.504Z,23.37
2018-03-02T02:20:36.745Z,22.47
2018-03-02T02:23:39.909Z,22.93
2018-03-02T02:26:43.094Z,24.07
2018-03-02T02:29:46.268Z,21.50
2018-03-02T02:32:49.490Z,23.00
2018-03-02T02:35:52.698Z,23.17
2018-03-02T02:38:55.862Z,22.47
2018-03-02T02:41:59.098Z,21.43
2018-03-02T02:45:02.361Z,23.57
2018-03-02T02:48:06.707Z,21.93
2018-03-02T02:51:09.922Z,21.63
2018-03-02T02:54:13.111Z,21.27
2018-03-02T02:57:16.295Z,23.10
2018-03-02T03:00:19.469Z,20.80
2018-03-02T03:03:22.637Z,22.10
2018-03-02T03:06:25.861Z,20.43
2018-03-02T03:09:29.162Z,21.00
2018-03-02T03:12:32.311Z,22.50
2018-03-02T03:15:36.534Z,22.17
2018-03-02T03:18:39.822Z,23.33
2018-03-02T03:21:43.091Z,22.47
2018-03-02T03:24:46.266Z,21.60
2018-03-02T03:27:49.570Z,22.83
2018-03-02T03:30:52.781Z,21.77
2018-03-02T03:33:55.979Z,20.97
2018-03-02T03:36:59.325Z,22.60
2018-03-02T03:40:02.611Z,22.00
2018-03-02T03:43:06.964Z,21.07
2018-03-02T03:46:10.114Z,21.80
2018-03-02T03:49:13.305Z,21.97
2018-03-02T03:52:16.910Z,22.75
2018-03-02T03:55:20.074Z,20.53
2018-03-02T03:58:23.289Z,21.47
2018-03-02T04:01:26.454Z,21.62
2018-03-02T04:04:29.698Z,22.03
2018-03-02T04:07:32.946Z,21.80
2018-03-02T04:10:36.414Z,21.23
2018-03-02T04:13:39.736Z,22.73
2018-03-02T04:16:43.059Z,22.15
2018-03-02T04:19:46.230Z,21.40
2018-03-02T04:22:49.406Z,21.47
2018-03-02T04:25:52.601Z,21.07
2018-03-02T04:28:55.772Z,21.30
2018-03-02T04:31:58.993Z,21.23
2018-03-02T04:35:02.278Z,20.27
2018-03-02T04:38:06.500Z,22.50
2018-03-02T04:41:09.683Z,21.50
2018-03-02T04:47:51.115Z,20.27
2018-03-02T04:50:54.293Z,21.42
2018-03-02T04:53:57.478Z,21.20
2018-03-02T04:57:00.689Z,21.70
2018-03-02T05:00:05.353Z,21.27
2018-03-02T05:03:08.622Z,20.45
2018-03-02T05:06:11.782Z,22.58
2018-03-02T05:09:14.947Z,22.17
2018-03-02T05:12:18.086Z,22.22
2018-03-02T05:15:21.283Z,20.67
2018-03-02T05:18:24.489Z,22.53
2018-03-02T05:21:27.647Z,22.30
2018-03-02T05:24:30.784Z,22.47
2018-03-02T05:27:35.058Z,22.27
2018-03-02T05:30:38.332Z,22.47
2018-03-02T05:33:41.523Z,22.20
2018-03-02T05:36:45.045Z,21.77
2018-03-02T05:39:48.343Z,23.33
2018-03-02T05:42:51.527Z,22.47
2018-03-02T05:45:54.734Z,21.33
2018-03-02T05:48:57.885Z,21.83
2018-03-02T05:52:01.126Z,22.95
2018-03-02T05:55:04.820Z,21.87
2018-03-02T06:01:38.573Z,22.97
2018-03-02T06:04:41.784Z,23.03
2018-03-02T06:07:44.962Z,22.93
2018-03-02T06:10:48.240Z,21.23
2018-03-02T06:13:51.459Z,23.70
2018-03-02T06:16:54.731Z,23.77
2018-03-02T06:19:57.986Z,23.37
2018-03-02T06:23:01.290Z,23.03
2018-03-02T06:26:04.598Z,21.43
2018-03-02T06:29:07.874Z,22.20
2018-03-02T06:32:11.179Z,22.73
2018-03-02T06:35:14.470Z,22.00
2018-03-02T06:38:17.746Z,22.75
2018-03-02T06:41:21.015Z,22.93
2018-03-02T06:44:24.222Z,23.43
2018-03-02T06:47:27.522Z,24.40
2018-03-02T06:50:30.699Z,22.73
2018-03-02T06:53:33.950Z,23.77
2018-03-02T06:56:37.134Z,24.07
2018-03-02T06:59:40.359Z,23.10
2018-03-02T07:02:44.362Z,23.40
2018-03-02T07:05:47.833Z,23.60
2018-03-02T07:08:51.151Z,23.83
2018-03-02T07:11:54.378Z,23.10
2018-03-02T07:14:57.550Z,24.83
2018-03-02T07:18:00.886Z,23.53
2018-03-02T07:21:04.232Z,24.37
2018-03-02T07:24:07.450Z,23.10
2018-03-02T07:27:10.627Z,24.00
2018-03-02T07:30:14.727Z,23.93
2018-03-02T07:33:17.956Z,23.67
2018-03-02T07:36:21.218Z,23.53
2018-03-02T07:39:24.437Z,24.03
2018-03-02T07:42:27.622Z,24.60
2018-03-02T07:45:30.797Z,24.10
2018-03-02T07:48:34.563Z,24.27
2018-03-02T07:51:37.787Z,24.57
2018-03-02T07:54:41.004Z,25.90
2018-03-02T07:57:44.718Z,24.13
2018-03-02T08:00:48.000Z,25.87
2018-03-02T08:03:51.158Z,25.23
2018-03-02T08:06:54.408Z,26.30
2018-03-02T08:09:57.586Z,25.32
2018-03-02T08:13:00.836Z,23.75
2018-03-02T08:16:04.088Z,23.32
2018-03-02T08:19:07.238Z,24.60
2018-03-02T08:22:10.441Z,24.30
2018-03-02T08:25:14.871Z,25.48
2018-03-02T08:28:18.062Z,26.15
2018-03-02T08:31:21.335Z,25.00
2018-03-02T08:34:24.534Z,25.20
2018-03-02T08:37:27.812Z,24.87
2018-03-02T08:40:30.995Z,23.92
2018-03-02T08:43:34.190Z,24.47
2018-03-02T08:46:37.362Z,25.27
2018-03-02T08:49:41.009Z,25.32
2018-03-02T08:52:44.260Z,24.95
2018-03-02T08:55:47.632Z,24.87
2018-03-02T08:58:50.792Z,24.92
2018-03-02T09:01:54.013Z,24.85
2018-03-02T09:04:57.185Z,24.32
2018-03-02T09:08:00.374Z,24.70
2018-03-02T09:11:03.661Z,25.13
2018-03-02T09:14:06.874Z,24.47
2018-03-02T09:17:10.072Z,25.60
2018-03-02T09:20:14.239Z,25.92
2018-03-02T09:23:17.404Z,24.70
2018-03-02T09:26:20.577Z,25.80
2018-03-02T09:29:23.787Z,25.68
2018-03-02T09:32:26.969Z,25.10
2018-03-02T09:35:30.156Z,27.65
2018-03-02T09:38:33.331Z,24.77
2018-03-02T09:41:36.550Z,27.05
2018-03-02T09:44:39.719Z,25.80
2018-03-02T09:47:43.553Z,26.45
2018-03-02T09:50:46.733Z,25.70
2018-03-02T09:53:49.927Z,25.35
2018-03-02T09:56:53.105Z,26.73
2018-03-02T09:59:56.370Z,25.40
2018-03-02T10:02:59.525Z,25.12
2018-03-02T10:06:02.724Z,27.00
2018-03-02T10:09:05.919Z,26.40
2018-03-02T10:12:09.106Z,26.00
2018-03-02T10:15:12.294Z,24.63
2018-03-02T10:18:16.192Z,25.85
2018-03-02T10:21:19.603Z,24.83
2018-03-02T10:24:22.906Z,25.32
2018-03-02T10:27:26.060Z,25.95
2018-03-02T10:30:29.298Z,26.77
2018-03-02T10:33:32.564Z,27.65
2018-03-02T10:36:35.786Z,25.95
2018-03-02T10:39:38.970Z,25.67
2018-03-02T10:42:42.178Z,25.80
2018-03-02T10:45:46.185Z,25.68
2018-03-02T10:48:49.342Z,26.37
2018-03-02T10:51:52.578Z,26.10
2018-03-02T10:54:55.748Z,25.55
2018-03-02T10:57:58.985Z,26.68
2018-03-02T11:01:06.333Z,26.40
2018-03-02T11:04:10.450Z,25.35
2018-03-02T11:07:14.157Z,26.67
2018-03-02T11:10:17.297Z,25.35
2018-03-02T11:13:20.479Z,28.47
2018-03-02T11:16:23.676Z,25.65
2018-03-02T11:19:26.878Z,25.57
2018-03-02T11:22:30.059Z,25.68
2018-03-02T11:25:33.282Z,26.80
2018-03-02T11:28:36.478Z,25.97
2018-03-02T11:31:39.636Z,25.65
2018-03-02T11:34:42.774Z,25.97
2018-03-02T11:37:47.105Z,26.05
2018-03-02T11:40:50.272Z,27.67
2018-03-02T11:43:53.420Z,24.77
2018-03-02T11:46:56.656Z,27.62
2018-03-02T11:49:59.746Z,26.60
2018-03-02T11:53:02.946Z,26.10
2018-03-02T11:56:06.655Z,27.07
2018-03-02T11:59:09.870Z,26.55
2018-03-02T12:02:13.002Z,26.95
2018-03-02T12:05:17.153Z,26.95
2018-03-02T12:08:20.313Z,26.87
2018-03-02T12:11:23.466Z,27.67
2018-03-02T12:14:26.680Z,26.85
2018-03-02T12:17:30.046Z,27.98
2018-03-02T12:20:33.208Z,27.40
2018-03-02T12:23:36.515Z,26.73
2018-03-02T12:26:39.610Z,26.97
2018-03-02T12:29:42.860Z,27.25
2018-03-02T12:32:46.580Z,26.12
2018-03-02T12:35:49.730Z,26.93
2018-03-02T12:38:52.900Z,27.13
2018-03-02T12:41:56.126Z,26.42
2018-03-02T12:44:59.903Z,25.50
2018-03-02T12:48:03.134Z,27.05
2018-03-02T12:51:06.322Z,27.20
2018-03-02T12:54:09.520Z,27.85
2018-03-02T12:57:12.793Z,27.58
2018-03-02T13:00:16.634Z,27.37
2018-03-02T13:03:19.769Z,27.73
2018-03-02T13:06:22.932Z,25.23
2018-03-02T13:09:26.147Z,25.97
2018-03-02T13:12:29.304Z,26.65
2018-03-02T13:15:32.447Z,26.05
2018-03-02T13:18:43.119Z,25.77
2018-03-02T13:21:47.514Z,26.80
2018-03-02T13:24:50.710Z,26.05
2018-03-02T13:28:05.340Z,26.70
2018-03-02T13:31:08.597Z,27.37
2018-03-02T13:35:15.810Z,27.20
2018-03-02T13:38:19.081Z,26.53
2018-03-02T13:41:33.666Z,27.35
2018-03-02T13:44:36.837Z,27.48
2018-03-02T13:47:46.665Z,25.05
2018-03-02T13:50:49.814Z,25.85
2018-03-02T13:53:53.001Z,26.20
2018-03-02T13:58:03.120Z,26.25
2018-03-02T14:01:06.345Z,27.10
2018-03-02T14:05:13.850Z,26.77
2018-03-02T14:08:17.978Z,26.40
2018-03-02T14:11:21.167Z,27.25
2018-03-02T14:14:24.437Z,26.40
2018-03-02T14:17:27.648Z,25.85
2018-03-02T14:20:30.852Z,26.37
2018-03-02T14:23:34.047Z,26.30
2018-03-02T14:26:37.244Z,28.12
2018-03-02T14:29:40.462Z,26.63
2018-03-02T14:32:43.616Z,26.77
2018-03-02T14:35:47.927Z,27.52
2018-03-02T14:38:51.161Z,27.05
2018-03-02T14:41:54.325Z,27.93
2018-03-02T14:44:57.574Z,26.20
2018-03-02T14:48:00.782Z,27.05
2018-03-02T14:51:04.096Z,28.05
2018-03-02T14:54:07.360Z,29.82
2018-03-02T14:57:10.627Z,27.00
2018-03-02T15:00:13.835Z,27.62
2018-03-02T15:03:18.010Z,27.90
2018-03-02T15:06:21.163Z,28.10
2018-03-02T15:09:24.346Z,27.17
2018-03-02T15:12:27.495Z,27.35
2018-03-02T15:15:30.649Z,27.17
2018-03-02T15:18:34.345Z,29.30
2018-03-02T15:21:37.697Z,28.02
2018-03-02T15:24:40.962Z,28.17
2018-03-02T15:27:44.150Z,27.60
2018-03-02T15:30:49.278Z,27.45
2018-03-02T15:33:52.449Z,29.02
2018-03-02T15:36:55.678Z,29.00
2018-03-02T15:39:58.944Z,30.50
2018-03-02T15:43:02.654Z,27.07
2018-03-02T15:46:05.812Z,26.93
2018-03-02T15:49:09.070Z,28.02
2018-03-02T15:52:12.291Z,27.95
2018-03-02T15:55:16.058Z,27.62
2018-03-02T15:58:19.317Z,29.10
2018-03-02T16:01:22.555Z,29.17
2018-03-02T16:04:25.929Z,29.27
2018-03-02T16:07:29.126Z,29.37
2018-03-02T16:10:32.349Z,27.60
2018-03-02T16:13:35.654Z,27.23
2018-03-02T16:16:38.976Z,28.93
2018-03-02T16:19:42.259Z,29.33
2018-03-02T16:22:47.006Z,30.53
2018-03-02T16:25:50.225Z,27.73
2018-03-02T16:28:53.428Z,31.27
2018-03-02T16:31:56.676Z,30.73
2018-03-02T16:34:59.977Z,32.33
2018-03-02T16:38:03.204Z,43.43
2018-03-02T16:41:06.962Z,34.77
2018-03-02T16:44:10.295Z,31.63
2018-03-02T16:47:14.344Z,32.47
2018-03-02T16:50:17.485Z,31.03
2018-03-02T16:53:20.826Z,33.03
2018-03-02T16:56:24.114Z,32.10
2018-03-02T16:59:27.383Z,34.67
2018-03-02T17:02:30.636Z,33.80
2018-03-02T17:05:34.043Z,34.63
2018-03-02T17:08:37.165Z,32.40
2018-03-02T17:11:40.446Z,35.20
2018-03-02T17:14:44.554Z,35.87
2018-03-02T17:17:47.882Z,35.67
2018-03-02T17:20:51.187Z,36.00
2018-03-02T17:23:55.509Z,39.23
2018-03-02T17:26:58.737Z,35.93
2018-03-02T17:30:01.988Z,35.90
2018-03-02T17:33:05.170Z,37.17
2018-03-02T17:36:08.343Z,36.90
2018-03-02T17:39:11.535Z,37.03
2018-03-02T17:42:15.637Z,37.50
2018-03-02T17:45:18.931Z,38.27
2018-03-02T17:48:22.117Z,38.17
2018-03-02T17:51:25.453Z,37.00
2018-03-02T17:54:28.662Z,37.50
2018-03-02T17:57:31.947Z,38.07
2018-03-02T18:00:35.584Z,38.13
2018-03-02T18:03:38.750Z,38.17
2018-03-02T18:06:43.053Z,39.43
2018-03-02T18:09:46.879Z,35.73
2018-03-02T18:12:50.096Z,39.10
2018-03-02T18:15:53.336Z,35.03
2018-03-02T18:18:56.592Z,40.37
2018-03-02T18:21:59.771Z,37.87
2018-03-02T18:25:02.977Z,39.17
2018-03-02T18:28:06.159Z,41.30
2018-03-02T18:31:09.492Z,41.13
2018-03-02T18:34:12.673Z,43.13
2018-03-02T18:37:15.858Z,41.53
2018-03-02T18:40:19.054Z,42.47
2018-03-02T18:43:22.267Z,42.93
2018-03-02T18:46:25.462Z,42.27
2018-03-02T18:49:28.663Z,42.27
2018-03-02T18:52:31.833Z,41.63
2018-03-02T18:55:35.106Z,41.00
2018-03-02T18:58:38.242Z,41.80
2018-03-02T19:01:41.554Z,44.17
2018-03-02T19:04:44.854Z,44.87
2018-03-02T19:07:48.126Z,46.63
2018-03-02T19:10:51.321Z,48.17
2018-03-02T19:13:54.532Z,51.30
2018-03-02T19:16:57.827Z,52.43
2018-03-02T19:20:01.063Z,52.97
2018-03-02T19:23:04.244Z,46.57
2018-03-02T19:26:07.458Z,46.17
2018-03-02T19:29:11.538Z,44.07
2018-03-02T19:32:14.826Z,44.03
2018-03-02T19:35:17.981Z,42.83
2018-03-02T19:38:21.138Z,42.93
2018-03-02T19:41:24.362Z,39.73
2018-03-02T19:44:27.614Z,38.53
2018-03-02T19:47:30.781Z,41.23
2018-03-02T19:50:33.961Z,48.87
2018-03-02T19:53:37.132Z,52.20
2018-03-02T19:56:40.453Z,55.47
2018-03-02T19:59:44.726Z,45.03
2018-03-02T20:02:47.956Z,44.60
2018-03-02T20:05:51.344Z,44.57
2018-03-02T20:08:54.653Z,46.73
2018-03-02T20:11:57.939Z,45.50
2018-03-02T20:15:01.633Z,43.77
2018-03-02T20:18:05.043Z,43.97
2018-03-02T20:21:09.442Z,46.63
2018-03-02T20:24:12.857Z,48.70
2018-03-02T20:27:16.793Z,43.70
2018-03-02T20:30:20.094Z,42.30
2018-03-02T20:33:23.642Z,44.53
2018-03-02T20:36:26.883Z,44.07
2018-03-02T20:39:30.234Z,42.93
2018-03-02T20:42:33.904Z,43.07
2018-03-02T20:45:37.135Z,47.00
2018-03-02T20:48:40.434Z,49.27
2018-03-02T20:51:43.880Z,44.03
2018-03-02T20:54:47.234Z,46.57
2018-03-02T20:57:50.558Z,48.90
2018-03-02T21:00:53.935Z,45.67
2018-03-02T21:03:57.187Z,40.07
2018-03-02T21:07:00.629Z,45.90
2018-03-02T21:10:04.002Z,42.33
2018-03-02T21:13:07.438Z,43.97
2018-03-02T21:16:12.480Z,43.33
2018-03-02T21:19:15.809Z,43.30
2018-03-02T21:22:19.426Z,41.27
2018-03-02T21:25:22.655Z,43.90
2018-03-02T21:28:25.842Z,44.40
2018-03-02T21:31:29.565Z,40.40
2018-03-02T21:34:32.890Z,42.73
2018-03-02T21:37:35.998Z,41.97
2018-03-02T21:40:39.193Z,41.67
2018-03-02T21:43:42.438Z,43.00
2018-03-02T21:46:45.687Z,40.73
2018-03-02T21:49:48.879Z,43.53
2018-03-02T21:52:52.082Z,41.03
2018-03-02T21:55:55.283Z,42.87
2018-03-02T21:58:58.490Z,45.37
2018-03-02T22:02:01.826Z,40.53
2018-03-02T22:05:05.004Z,40.67
2018-03-02T22:08:08.175Z,41.50
2018-03-02T22:11:11.355Z,43.77
2018-03-02T22:14:15.306Z,45.00
2018-03-02T22:17:18.455Z,43.03
2018-03-02T22:20:21.651Z,41.77
2018-03-02T22:23:24.851Z,42.67
2018-03-02T22:26:28.033Z,42.43
2018-03-02T22:29:31.253Z,41.03
2018-03-02T22:32:34.454Z,40.73
2018-03-02T22:35:37.614Z,41.40
2018-03-02T22:38:40.838Z,42.20
2018-03-02T22:41:44.005Z,41.60
2018-03-02T22:44:47.283Z,42.03
2018-03-02T22:47:50.554Z,39.47
2018-03-02T22:50:53.708Z,43.83
2018-03-02T22:53:56.933Z,41.27
2018-03-02T22:57:00.140Z,41.20
2018-03-02T23:00:03.351Z,44.07
2018-03-02T23:03:06.526Z,41.20
2018-03-02T23:06:09.715Z,42.30
2018-03-02T23:09:12.977Z,41.43
2018-03-02T23:12:16.207Z,41.13
2018-03-02T23:15:20.324Z,39.17
2018-03-02T23:18:23.478Z,43.83
2018-03-02T23:21:26.642Z,47.13
2018-03-02T23:24:29.835Z,43.10
2018-03-02T23:27:33.005Z,43.33
2018-03-02T23:30:36.201Z,42.20
2018-03-02T23:33:45.759Z,39.63
2018-03-02T23:36:51.412Z,41.77
2018-03-02T23:39:54.586Z,43.77
2018-03-02T23:42:57.823Z,42.87
2018-03-02T23:46:00.999Z,41.87
2018-03-02T23:49:04.145Z,42.47
2018-03-02T23:52:07.411Z,42.53
2018-03-02T23:55:10.587Z,43.63
2018-03-02T23:58:13.816Z,42.47
